Time;durP1;ratioP1;P1;durP2;ratioP2;P2;SDS_P1;SDS_P2;PMS_P1;PMS_P2;Temp;Humidity;BMP_temperature;BMP_pressure;BME280_temperature;BME280_humidity;BME280_pressure;Samples;Min_cycle;Max_cycle;Signal;HPM_P1;HPM_P2
2023/12/31 05:06:10;;;;;;;0.50;0.50;;;6.30;99.90;;;;;;5567097;23;20221;-64
2023/12/31 05:08:35;;;;;;;0.30;0.30;;;6.30;99.90;;;;;;4917050;29;20745;-65
2023/12/31 05:11:02;;;;;;;0.30;0.30;;;6.30;99.90;;;;;;4917902;29;20265;-65
2023/12/31 05:13:27;;;;;;;0.93;0.50;;;6.40;99.90;;;;;;4917244;29;20589;-66
2023/12/31 05:15:53;;;;;;;0.30;0.30;;;6.40;99.90;;;;;;4916814;29;20194;-64
2023/12/31 05:18:19;;;;;;;0.40;0.40;;;6.50;99.90;;;;;;4917259;29;20188;-64
2023/12/31 05:20:44;;;;;;;0.30;0.30;;;6.60;99.90;;;;;;4917101;29;20185;-65
2023/12/31 05:23:10;;;;;;;0.30;0.30;;;6.60;99.90;;;;;;4918667;29;20214;-65
2023/12/31 05:25:35;;;;;;;0.57;0.57;;;6.60;99.90;;;;;;4920627;29;20201;-64
2023/12/31 05:28:01;;;;;;;0.37;0.37;;;6.60;99.90;;;;;;4921033;29;20193;-64
2023/12/31 05:30:26;;;;;;;0.30;0.30;;;6.50;99.90;;;;;;4920875;29;20182;-64
2023/12/31 05:32:52;;;;;;;0.30;0.30;;;6.60;99.90;;;;;;4920818;29;20190;-65
2023/12/31 05:35:18;;;;;;;1.17;0.67;;;6.60;99.90;;;;;;4919725;29;20211;-66
2023/12/31 05:37:43;;;;;;;0.40;0.40;;;6.60;99.90;;;;;;4920685;29;20173;-64
2023/12/31 05:40:10;;;;;;;0.30;0.30;;;6.60;99.90;;;;;;4920817;29;20210;-64
2023/12/31 05:42:35;;;;;;;0.30;0.30;;;6.60;99.90;;;;;;4920599;29;20197;-65
2023/12/31 05:45:01;;;;;;;0.37;0.37;;;6.60;99.90;;;;;;4920185;29;20180;-64
2023/12/31 05:47:26;;;;;;;0.30;0.30;;;6.60;99.90;;;;;;4920567;29;20170;-64
2023/12/31 05:49:52;;;;;;;0.40;0.40;;;6.60;99.90;;;;;;4920543;29;20201;-64
2023/12/31 05:52:17;;;;;;;0.30;0.30;;;6.60;99.90;;;;;;4919288;29;20178;-64
2023/12/31 05:54:43;;;;;;;0.30;0.30;;;6.60;99.90;;;;;;4920125;29;20211;-64
2023/12/31 05:57:08;;;;;;;0.30;0.30;;;6.50;99.90;;;;;;4920533;29;20530;-64
2023/12/31 05:59:34;;;;;;;0.30;0.30;;;6.50;99.90;;;;;;4920743;29;20547;-64
2023/12/31 06:02:00;;;;;;;0.43;0.43;;;6.40;99.90;;;;;;4919074;29;20186;-64
2023/12/31 06:04:25;;;;;;;0.63;0.63;;;6.40;99.90;;;;;;4918817;29;20170;-65
2023/12/31 06:06:51;;;;;;;0.30;0.30;;;6.40;99.90;;;;;;4920355;29;20216;-64
2023/12/31 06:09:16;;;;;;;0.30;0.30;;;6.30;99.90;;;;;;4920170;29;20194;-64
2023/12/31 06:11:42;;;;;;;0.30;0.30;;;6.30;99.90;;;;;;4920280;29;20515;-64
2023/12/31 06:14:07;;;;;;;0.33;0.33;;;6.30;99.90;;;;;;4920508;29;20183;-65
2023/12/31 06:16:33;;;;;;;0.30;0.30;;;6.40;99.90;;;;;;4919785;29;20193;-66
2023/12/31 06:18:59;;;;;;;0.30;0.30;;;6.30;99.90;;;;;;4916689;29;20189;-65
2023/12/31 06:21:24;;;;;;;0.30;0.30;;;6.30;99.90;;;;;;4901046;29;20265;-65
2023/12/31 06:23:51;;;;;;;0.30;0.30;;;6.30;99.90;;;;;;4901272;29;20238;-65
2023/12/31 06:26:16;;;;;;;0.30;0.30;;;6.30;99.90;;;;;;4900750;29;20229;-64
2023/12/31 06:28:42;;;;;;;0.30;0.30;;;6.30;99.90;;;;;;4900962;29;20269;-64
2023/12/31 06:31:10;;;;;;;0.40;0.40;;;6.40;99.90;;;;;;4901333;29;20643;-64
2023/12/31 06:33:35;;;;;;;0.40;0.40;;;6.40;99.90;;;;;;4916561;29;20221;-65
2023/12/31 06:36:01;;;;;;;0.50;0.50;;;6.40;99.90;;;;;;4919374;29;20197;-65
2023/12/31 06:38:26;;;;;;;0.37;0.37;;;6.40;99.90;;;;;;4919936;29;20654;-65
2023/12/31 06:40:52;;;;;;;0.30;0.30;;;6.40;99.90;;;;;;4919850;29;20225;-65
2023/12/31 06:43:18;;;;;;;0.30;0.30;;;6.40;99.90;;;;;;4919629;29;20207;-64
2023/12/31 06:45:43;;;;;;;0.30;0.30;;;6.40;99.90;;;;;;4919172;29;20205;-65
2023/12/31 06:48:09;;;;;;;0.30;0.30;;;6.40;99.90;;;;;;4919117;29;20189;-65
2023/12/31 06:50:35;;;;;;;0.30;0.30;;;6.50;99.90;;;;;;4919566;29;20192;-64
2023/12/31 06:53:01;;;;;;;0.30;0.30;;;6.40;99.90;;;;;;4919390;29;20539;-64
2023/12/31 06:55:26;;;;;;;0.30;0.30;;;6.40;99.90;;;;;;4919035;29;20270;-65
2023/12/31 06:57:52;;;;;;;0.30;0.30;;;6.40;99.90;;;;;;4919757;29;20204;-64
2023/12/31 07:00:18;;;;;;;0.30;0.30;;;6.40;99.90;;;;;;4919356;29;20178;-64
2023/12/31 07:02:43;;;;;;;0.30;0.30;;;6.40;99.90;;;;;;4905061;29;20192;-65
2023/12/31 07:05:09;;;;;;;0.30;0.30;;;6.40;99.90;;;;;;4900099;29;20184;-65
2023/12/31 07:07:36;;;;;;;0.30;0.30;;;6.40;99.90;;;;;;4900253;29;20257;-64
2023/12/31 07:10:01;;;;;;;0.30;0.30;;;6.40;99.90;;;;;;4900393;29;20201;-64
2023/12/31 07:12:27;;;;;;;0.30;0.27;;;6.50;99.90;;;;;;4900444;29;20177;-64
2023/12/31 07:14:52;;;;;;;0.30;0.30;;;6.50;99.90;;;;;;4899919;29;20201;-65
2023/12/31 07:17:18;;;;;;;0.30;0.30;;;6.50;99.90;;;;;;4912403;29;20202;-64
2023/12/31 07:19:44;;;;;;;0.40;0.40;;;6.50;99.90;;;;;;4918473;29;20188;-65
2023/12/31 07:22:09;;;;;;;0.37;0.37;;;6.50;99.90;;;;;;4918789;29;20183;-64
2023/12/31 07:24:36;;;;;;;0.30;0.30;;;6.60;99.90;;;;;;4918652;29;20310;-65
2023/12/31 07:27:01;;;;;;;0.30;0.30;;;6.60;99.90;;;;;;4919022;29;20244;-64
2023/12/31 07:29:27;;;;;;;0.30;0.30;;;6.70;99.90;;;;;;4918686;29;20236;-64
2023/12/31 07:31:52;;;;;;;0.30;0.30;;;6.70;99.90;;;;;;4918469;29;20219;-64
2023/12/31 07:34:18;;;;;;;0.50;0.50;;;6.70;99.90;;;;;;4918194;29;20172;-65
2023/12/31 07:36:44;;;;;;;0.30;0.30;;;6.70;99.90;;;;;;4918574;29;20716;-65
2023/12/31 07:39:09;;;;;;;0.30;0.20;;;6.70;99.90;;;;;;4918765;29;20255;-64
2023/12/31 07:41:35;;;;;;;0.30;0.30;;;6.70;99.90;;;;;;4918707;29;20652;-64
2023/12/31 07:44:00;;;;;;;0.30;0.30;;;6.70;99.90;;;;;;4918514;29;20173;-64
2023/12/31 07:46:26;;;;;;;0.30;0.30;;;6.80;99.90;;;;;;4920605;29;20204;-64
2023/12/31 07:48:52;;;;;;;0.30;0.30;;;6.70;99.90;;;;;;4929572;29;20206;-65
2023/12/31 07:51:18;;;;;;;0.30;0.30;;;6.70;99.90;;;;;;4937260;29;20173;-64
2023/12/31 07:53:44;;;;;;;0.30;0.30;;;6.80;99.90;;;;;;4937096;29;20412;-65
2023/12/31 07:56:10;;;;;;;0.38;0.38;;;7.00;99.90;;;;;;4936757;29;20199;-64
2023/12/31 07:58:35;;;;;;;0.30;0.30;;;7.10;99.90;;;;;;4937244;29;20181;-65
2023/12/31 08:01:04;;;;;;;0.30;0.30;;;7.30;99.90;;;;;;4928911;29;20199;-64
2023/12/31 08:03:29;;;;;;;0.30;0.30;;;7.40;99.90;;;;;;4923201;29;20712;-65
2023/12/31 08:05:55;;;;;;;0.40;0.40;;;7.50;99.90;;;;;;4917530;29;20194;-66
2023/12/31 08:08:21;;;;;;;0.30;0.20;;;7.60;99.90;;;;;;4917755;29;20586;-66
2023/12/31 08:10:47;;;;;;;0.30;0.30;;;7.70;99.90;;;;;;4917742;29;20469;-64
2023/12/31 08:13:13;;;;;;;0.30;0.30;;;7.80;99.90;;;;;;4918358;29;20689;-64
2023/12/31 08:15:38;;;;;;;0.30;0.30;;;7.80;99.90;;;;;;4917071;29;20201;-64
2023/12/31 08:18:05;;;;;;;0.30;0.30;;;7.80;99.90;;;;;;4928067;29;20191;-65
2023/12/31 08:20:30;;;;;;;0.30;0.30;;;7.70;99.90;;;;;;4921835;29;20645;-65
2023/12/31 08:22:58;;;;;;;0.30;0.30;;;7.70;99.90;;;;;;4920209;29;20264;-66
2023/12/31 08:25:23;;;;;;;0.40;0.40;;;7.70;99.90;;;;;;4919640;29;20200;-64
2023/12/31 08:27:49;;;;;;;0.30;0.30;;;7.70;99.90;;;;;;4917589;29;20170;-64
2023/12/31 08:30:15;;;;;;;0.30;0.30;;;7.70;99.90;;;;;;4912756;29;20205;-64
2023/12/31 08:32:40;;;;;;;0.30;0.30;;;7.70;99.90;;;;;;4917265;29;20179;-65
2023/12/31 08:35:08;;;;;;;0.30;0.30;;;7.70;99.90;;;;;;4915305;29;20257;-65
2023/12/31 08:37:34;;;;;;;0.30;0.30;;;7.80;99.90;;;;;;4901949;29;20245;-65
2023/12/31 08:39:59;;;;;;;0.30;0.30;;;8.00;99.90;;;;;;4899575;29;20186;-65
2023/12/31 08:42:25;;;;;;;0.30;0.30;;;8.10;99.90;;;;;;4898433;29;20265;-65
2023/12/31 08:44:50;;;;;;;0.33;0.33;;;8.20;99.90;;;;;;4905251;29;20661;-64
2023/12/31 08:47:16;;;;;;;4.63;1.50;;;8.30;99.90;;;;;;4911606;29;20198;-65
2023/12/31 08:49:41;;;;;;;0.40;0.40;;;8.40;99.90;;;;;;4917037;29;20261;-65
2023/12/31 08:52:07;;;;;;;0.30;0.30;;;8.50;99.90;;;;;;4917251;29;20182;-64
2023/12/31 08:54:33;;;;;;;0.30;0.30;;;8.60;99.90;;;;;;4915327;29;20186;-65
2023/12/31 08:56:59;;;;;;;0.30;0.30;;;8.60;99.90;;;;;;4916971;29;20226;-65
2023/12/31 08:59:25;;;;;;;0.43;0.43;;;8.80;99.90;;;;;;4912329;29;20409;-65
2023/12/31 09:01:51;;;;;;;0.82;0.82;;;8.90;99.90;;;;;;4907798;29;20536;-64
2023/12/31 09:04:17;;;;;;;0.30;0.30;;;9.00;99.90;;;;;;4914824;29;20171;-64
2023/12/31 09:06:43;;;;;;;0.30;0.30;;;9.00;99.90;;;;;;4904745;29;20233;-62
2023/12/31 09:09:08;;;;;;;0.30;0.30;;;8.90;99.90;;;;;;4911496;29;20562;-62
2023/12/31 09:11:34;;;;;;;0.30;0.30;;;8.80;99.90;;;;;;4910768;29;20182;-65
2023/12/31 09:14:00;;;;;;;0.30;0.30;;;8.80;99.90;;;;;;4913670;29;20175;-64
2023/12/31 09:16:26;;;;;;;0.30;0.30;;;8.70;99.90;;;;;;4904073;29;20292;-64
2023/12/31 09:18:51;;;;;;;0.50;0.50;;;8.70;99.90;;;;;;4904537;29;20186;-64
2023/12/31 09:21:17;;;;;;;0.30;0.20;;;8.70;99.90;;;;;;4916919;29;20223;-69
2023/12/31 09:23:42;;;;;;;0.40;0.40;;;8.80;99.90;;;;;;4905855;29;20187;-67
2023/12/31 09:26:08;;;;;;;0.30;0.30;;;8.80;99.90;;;;;;4899949;29;20206;-65
2023/12/31 09:28:34;;;;;;;0.30;0.30;;;8.90;99.90;;;;;;4911662;29;20249;-66
2023/12/31 09:31:00;;;;;;;0.30;0.30;;;9.00;99.90;;;;;;4915538;29;20253;-73
2023/12/31 09:33:25;;;;;;;0.30;0.30;;;9.10;99.90;;;;;;4904218;29;20178;-65
2023/12/31 09:35:51;;;;;;;0.40;0.40;;;9.30;99.90;;;;;;4903691;29;20271;-63
2023/12/31 09:38:16;;;;;;;0.30;0.30;;;9.40;99.90;;;;;;4904747;29;20189;-70
2023/12/31 09:40:43;;;;;;;0.30;0.30;;;9.60;99.90;;;;;;4906778;29;20672;-65
2023/12/31 09:43:10;;;;;;;0.30;0.30;;;9.70;99.90;;;;;;4901233;29;20266;-67
2023/12/31 09:45:36;;;;;;;0.30;0.20;;;9.70;99.90;;;;;;4900058;29;20212;-67
2023/12/31 09:48:02;;;;;;;0.30;0.30;;;9.70;99.90;;;;;;4900742;29;20210;-69
2023/12/31 09:50:30;;;;;;;0.30;0.30;;;9.60;99.90;;;;;;4905502;29;20187;-65
2023/12/31 09:52:59;;;;;;;0.40;0.40;;;9.60;99.90;;;;;;4915205;29;20269;-67
2023/12/31 09:55:25;;;;;;;0.30;0.30;;;9.60;99.90;;;;;;4914268;29;20209;-68
2023/12/31 09:57:55;;;;;;;0.30;0.20;;;9.60;99.90;;;;;;4912591;29;20434;-67
2023/12/31 10:00:21;;;;;;;0.30;0.30;;;9.70;99.90;;;;;;4905938;29;20480;-68
2023/12/31 10:02:51;;;;;;;0.30;0.30;;;9.80;99.90;;;;;;4916462;29;20412;-69
2023/12/31 10:05:20;;;;;;;0.30;0.30;;;9.90;99.90;;;;;;4902847;29;20441;-66
2023/12/31 10:07:46;;;;;;;0.30;0.30;;;10.00;99.90;;;;;;4905967;29;20255;-67
2023/12/31 10:10:16;;;;;;;0.30;0.30;;;10.20;99.90;;;;;;4916956;29;20591;-66
2023/12/31 10:12:42;;;;;;;0.30;0.30;;;10.40;99.90;;;;;;4905943;29;20508;-66
2023/12/31 10:15:08;;;;;;;0.30;0.20;;;10.70;99.90;;;;;;4899564;29;20509;-68
2023/12/31 10:17:36;;;;;;;0.40;0.40;;;11.00;99.90;;;;;;4919499;29;20184;-69
2023/12/31 10:20:03;;;;;;;0.30;0.20;;;11.20;99.90;;;;;;4919569;29;20814;-66
2023/12/31 10:22:34;;;;;;;0.30;0.30;;;11.30;99.90;;;;;;4916621;29;20418;-67
2023/12/31 10:25:16;;;;;;;0.40;0.40;;;11.40;99.90;;;;;;4918817;29;20405;-67
2023/12/31 10:27:47;;;;;;;0.30;0.20;;;11.40;99.80;;;;;;4902040;29;20931;-69
2023/12/31 10:30:13;;;;;;;0.30;0.20;;;11.50;98.50;;;;;;4901453;29;20466;-71
2023/12/31 10:32:39;;;;;;;0.40;0.40;;;11.70;97.70;;;;;;4916088;29;20422;-71
2023/12/31 10:35:06;;;;;;;0.30;0.30;;;11.90;96.90;;;;;;4904081;29;20437;-71
2023/12/31 10:37:32;;;;;;;0.33;0.33;;;12.00;96.10;;;;;;4906323;29;20189;-69
2023/12/31 10:39:59;;;;;;;0.70;0.50;;;12.20;95.70;;;;;;4911506;29;20850;-69
2023/12/31 10:42:26;;;;;;;0.30;0.30;;;12.40;95.10;;;;;;4909902;29;20425;-72
2023/12/31 10:44:55;;;;;;;0.60;0.60;;;12.40;94.90;;;;;;4908882;29;20512;-69
2023/12/31 10:47:25;;;;;;;0.30;0.30;;;12.50;94.60;;;;;;4918966;29;20477;-68
2023/12/31 10:49:51;;;;;;;0.30;0.30;;;12.50;94.40;;;;;;4910875;29;20455;-69
2023/12/31 10:52:16;;;;;;;0.30;0.30;;;12.60;95.20;;;;;;4899254;29;20422;-70
2023/12/31 10:54:47;;;;;;;0.30;0.20;;;12.60;94.70;;;;;;4900209;29;20179;-70
2023/12/31 10:57:14;;;;;;;0.30;0.30;;;12.60;94.70;;;;;;4900221;29;20193;-70
2023/12/31 10:59:43;;;;;;;0.30;0.30;;;12.60;94.40;;;;;;4900455;29;20462;-70
2023/12/31 11:02:29;;;;;;;0.30;0.23;;;12.60;94.50;;;;;;4900433;29;20907;-69
2023/12/31 11:04:56;;;;;;;0.43;0.43;;;12.70;94.80;;;;;;4914902;29;20469;-68
2023/12/31 11:07:22;;;;;;;0.60;0.60;;;12.70;95.00;;;;;;4918796;29;20441;-70
2023/12/31 11:09:48;;;;;;;0.30;0.30;;;12.80;95.10;;;;;;4919031;29;20465;-68
2023/12/31 11:12:18;;;;;;;0.30;0.20;;;12.80;94.90;;;;;;4918878;29;20414;-68
2023/12/31 11:15:05;;;;;;;0.30;0.20;;;12.90;95.00;;;;;;4918547;29;20434;-69
2023/12/31 11:17:57;;;;;;;0.37;0.37;;;13.10;94.80;;;;;;4909095;29;20440;-69
2023/12/31 11:20:47;;;;;;;0.47;0.47;;;13.10;94.70;;;;;;4918367;29;20517;-70
2023/12/31 11:23:43;;;;;;;0.30;0.30;;;13.20;94.80;;;;;;4919124;29;20441;-68
2023/12/31 11:26:10;;;;;;;0.30;0.30;;;13.10;94.60;;;;;;4918285;29;20399;-67
2023/12/31 11:28:36;;;;;;;0.50;0.47;;;13.10;94.60;;;;;;4918367;29;20472;-68
2023/12/31 11:31:09;;;;;;;0.30;0.27;;;13.10;94.90;;;;;;4918519;29;20414;-68
2023/12/31 11:33:35;;;;;;;0.30;0.30;;;12.90;95.40;;;;;;4918131;29;20264;-68
2023/12/31 11:36:15;;;;;;;0.60;0.50;;;12.80;95.60;;;;;;4922677;29;20548;-67
2023/12/31 11:38:56;;;;;;;0.30;0.30;;;12.70;95.60;;;;;;4924494;29;20222;-67
2023/12/31 11:41:49;;;;;;;0.30;0.30;;;12.60;95.70;;;;;;4925222;29;20513;-69
2023/12/31 11:44:40;;;;;;;0.30;0.30;;;12.60;96.40;;;;;;4920834;29;20421;-69
2023/12/31 11:47:25;;;;;;;0.40;0.40;;;12.50;96.90;;;;;;4928966;29;20448;-67
2023/12/31 11:49:55;;;;;;;0.30;0.20;;;12.40;97.40;;;;;;4918112;29;20476;-68
2023/12/31 11:52:31;;;;;;;0.30;0.30;;;12.30;97.20;;;;;;4917688;29;20410;-69
2023/12/31 11:54:58;;;;;;;0.30;0.30;;;12.30;97.80;;;;;;4917296;29;20909;-69
2023/12/31 11:57:25;;;;;;;0.30;0.30;;;12.00;98.90;;;;;;4917740;29;20402;-68
2023/12/31 11:59:52;;;;;;;0.40;0.40;;;11.80;99.90;;;;;;4918012;29;20400;-66
2023/12/31 12:02:17;;;;;;;0.30;0.30;;;11.40;99.90;;;;;;4917948;29;20401;-68
2023/12/31 12:04:43;;;;;;;0.30;0.30;;;11.00;99.90;;;;;;4917493;29;20470;-66
2023/12/31 12:07:09;;;;;;;0.33;0.33;;;10.70;99.90;;;;;;4918016;29;20579;-68
2023/12/31 12:09:36;;;;;;;0.30;0.30;;;10.50;99.90;;;;;;4917268;29;20239;-68
2023/12/31 12:12:05;;;;;;;0.30;0.20;;;10.30;99.90;;;;;;4917993;29;20177;-66
2023/12/31 12:14:31;;;;;;;0.50;0.50;;;10.10;99.90;;;;;;4917479;29;20427;-65
2023/12/31 12:16:57;;;;;;;0.30;0.27;;;10.00;99.90;;;;;;4918207;29;20427;-68
2023/12/31 12:19:24;;;;;;;0.30;0.30;;;9.90;99.90;;;;;;4917891;29;20253;-66
2023/12/31 12:21:50;;;;;;;0.35;0.35;;;9.80;99.90;;;;;;4917815;29;20408;-65
2023/12/31 12:24:19;;;;;;;0.30;0.30;;;9.70;99.90;;;;;;4916092;29;20296;-67
2023/12/31 12:26:49;;;;;;;0.30;0.30;;;9.70;99.90;;;;;;4902997;29;20212;-67
2023/12/31 12:29:15;;;;;;;0.32;0.32;;;9.60;99.90;;;;;;4898969;29;20215;-64
2023/12/31 12:31:45;;;;;;;0.40;0.40;;;9.50;99.90;;;;;;4898344;29;20170;-65
2023/12/31 12:34:12;;;;;;;0.30;0.20;;;9.50;99.90;;;;;;4898538;29;20576;-66
2023/12/31 12:36:38;;;;;;;0.30;0.30;;;9.40;99.90;;;;;;4897065;29;20203;-66
2023/12/31 12:39:05;;;;;;;0.30;0.30;;;9.40;99.90;;;;;;4898312;29;20190;-68
2023/12/31 12:41:34;;;;;;;0.30;0.30;;;9.30;99.90;;;;;;4912453;29;20211;-66
2023/12/31 12:44:09;;;;;;;0.40;0.40;;;9.20;99.90;;;;;;4917068;29;20187;-67
2023/12/31 12:46:35;;;;;;;0.30;0.30;;;9.30;99.90;;;;;;4905679;29;20234;-65
2023/12/31 12:49:03;;;;;;;0.30;0.30;;;9.20;99.90;;;;;;4906431;29;20670;-66
2023/12/31 12:51:29;;;;;;;0.30;0.30;;;9.30;99.90;;;;;;4917269;29;20409;-66
2023/12/31 12:53:55;;;;;;;0.30;0.30;;;9.20;99.90;;;;;;4905087;29;20178;-66
2023/12/31 12:56:22;;;;;;;0.30;0.30;;;9.20;99.90;;;;;;4897931;29;20667;-66
2023/12/31 12:58:50;;;;;;;0.40;0.40;;;9.20;99.90;;;;;;4897114;29;20192;-67
2023/12/31 13:01:17;;;;;;;0.30;0.30;;;9.20;99.90;;;;;;4898459;29;20196;-66
2023/12/31 13:03:43;;;;;;;0.30;0.30;;;9.20;99.90;;;;;;4915254;29;20722;-65
2023/12/31 13:06:08;;;;;;;0.30;0.30;;;9.30;99.90;;;;;;4904272;29;20215;-67
2023/12/31 13:08:34;;;;;;;0.30;0.30;;;9.20;99.90;;;;;;4898130;29;20993;-65
2023/12/31 13:11:01;;;;;;;0.30;0.30;;;9.20;99.90;;;;;;4898255;29;20691;-66
2023/12/31 13:13:27;;;;;;;0.30;0.30;;;9.20;99.90;;;;;;4898061;29;20179;-66
2023/12/31 13:15:52;;;;;;;0.30;0.23;;;9.20;99.90;;;;;;4897589;29;20238;-64
2023/12/31 13:18:18;;;;;;;0.30;0.30;;;9.20;99.90;;;;;;4913082;29;20210;-65
2023/12/31 13:20:44;;;;;;;0.30;0.30;;;9.10;99.90;;;;;;4916585;29;20207;-65
2023/12/31 13:23:10;;;;;;;0.30;0.30;;;9.10;99.90;;;;;;4916742;29;20175;-68
2023/12/31 13:25:36;;;;;;;0.30;0.30;;;9.00;99.90;;;;;;4909957;29;20226;-66
2023/12/31 13:28:04;;;;;;;0.30;0.30;;;9.00;99.90;;;;;;4916030;29;20667;-67
2023/12/31 13:30:29;;;;;;;0.30;0.30;;;9.00;99.90;;;;;;4906966;29;20267;-70
2023/12/31 13:32:55;;;;;;;0.30;0.30;;;9.00;99.90;;;;;;4923290;29;20174;-69
2023/12/31 13:35:20;;;;;;;0.30;0.30;;;9.00;99.90;;;;;;4926592;29;20332;-63
2023/12/31 13:37:46;;;;;;;0.30;0.30;;;9.00;99.90;;;;;;4929034;29;20590;-66
2023/12/31 13:40:12;;;;;;;0.30;0.30;;;9.00;99.90;;;;;;4927111;29;20174;-67
2023/12/31 13:42:38;;;;;;;0.47;0.47;;;9.00;99.90;;;;;;4922334;29;20206;-64
2023/12/31 13:45:04;;;;;;;0.30;0.30;;;9.00;99.90;;;;;;4924987;29;20186;-71
2023/12/31 13:47:30;;;;;;;0.30;0.30;;;9.00;99.90;;;;;;4926465;29;20194;-64
2023/12/31 13:49:57;;;;;;;0.30;0.30;;;9.00;99.90;;;;;;4926055;29;20273;-64
2023/12/31 13:52:27;;;;;;;0.38;0.38;;;9.00;99.90;;;;;;4929281;29;20413;-64
2023/12/31 13:54:52;;;;;;;0.30;0.30;;;9.00;99.90;;;;;;4929940;29;20204;-65
2023/12/31 13:57:18;;;;;;;0.30;0.30;;;9.00;99.90;;;;;;4927310;29;20198;-65
2023/12/31 13:59:43;;;;;;;0.30;0.20;;;9.00;99.90;;;;;;4928837;29;20245;-61
2023/12/31 14:02:10;;;;;;;0.30;0.30;;;9.00;99.90;;;;;;4926767;29;20708;-68
2023/12/31 14:04:35;;;;;;;0.30;0.30;;;9.00;99.90;;;;;;4926544;29;20182;-67
2023/12/31 14:07:01;;;;;;;0.30;0.30;;;9.00;99.90;;;;;;4924800;29;20217;-70
2023/12/31 14:09:27;;;;;;;0.30;0.20;;;9.00;99.90;;;;;;4928688;29;20197;-69
2023/12/31 14:11:52;;;;;;;0.30;0.30;;;9.00;99.90;;;;;;4928191;29;20574;-65
2023/12/31 14:14:19;;;;;;;0.30;0.30;;;8.90;99.90;;;;;;4927724;29;20584;-63
2023/12/31 14:16:45;;;;;;;0.40;0.40;;;9.00;99.90;;;;;;4924034;29;20253;-64
2023/12/31 14:19:11;;;;;;;0.30;0.30;;;9.00;99.90;;;;;;4916108;29;20270;-64
2023/12/31 14:21:38;;;;;;;0.30;0.30;;;9.00;99.90;;;;;;4919780;29;20660;-64
2023/12/31 14:24:04;;;;;;;0.30;0.30;;;9.00;99.90;;;;;;4913613;29;20197;-64
2023/12/31 14:26:30;;;;;;;0.30;0.30;;;9.00;99.90;;;;;;4913855;29;20573;-65
2023/12/31 14:28:55;;;;;;;0.30;0.30;;;9.00;99.90;;;;;;4917216;29;20210;-64
2023/12/31 14:31:21;;;;;;;0.30;0.30;;;8.90;99.90;;;;;;4919565;29;20538;-63
2023/12/31 14:33:47;;;;;;;0.30;0.30;;;8.90;99.90;;;;;;4918261;29;20174;-64
2023/12/31 14:36:12;;;;;;;0.30;0.30;;;8.80;99.90;;;;;;4914790;29;20231;-63
2023/12/31 14:38:39;;;;;;;0.30;0.30;;;8.80;99.90;;;;;;4918747;29;20202;-63
2023/12/31 14:41:05;;;;;;;0.30;0.30;;;8.70;99.90;;;;;;4916583;29;20277;-63
2023/12/31 14:43:30;;;;;;;0.30;0.30;;;8.70;99.90;;;;;;4913727;29;20276;-63
2023/12/31 14:45:56;;;;;;;0.63;0.60;;;8.60;99.90;;;;;;4917734;29;20258;-68
2023/12/31 14:48:22;;;;;;;0.30;0.30;;;8.60;99.90;;;;;;4902998;29;20694;-69
2023/12/31 14:50:47;;;;;;;0.30;0.30;;;8.50;99.90;;;;;;4900220;29;20695;-67
2023/12/31 14:53:13;;;;;;;0.30;0.30;;;8.50;99.90;;;;;;4900216;29;20254;-66
2023/12/31 14:55:39;;;;;;;0.40;0.40;;;8.50;99.90;;;;;;4900374;29;20466;-68
2023/12/31 14:58:05;;;;;;;0.40;0.40;;;8.50;99.90;;;;;;4919107;29;20229;-65
2023/12/31 15:00:31;;;;;;;0.30;0.30;;;8.50;99.90;;;;;;4918426;29;20198;-67
2023/12/31 15:02:57;;;;;;;0.30;0.30;;;8.40;99.90;;;;;;4914594;29;20285;-67
2023/12/31 15:05:22;;;;;;;0.30;0.30;;;8.40;99.90;;;;;;4899399;29;20766;-64
2023/12/31 15:07:48;;;;;;;0.50;0.50;;;8.40;99.90;;;;;;4914817;29;20264;-64
2023/12/31 15:10:13;;;;;;;0.30;0.30;;;8.40;99.90;;;;;;4937717;29;20288;-68
2023/12/31 15:12:39;;;;;;;0.30;0.30;;;8.40;99.90;;;;;;4919450;29;20202;-66
2023/12/31 15:15:06;;;;;;;0.30;0.30;;;8.40;99.90;;;;;;4917481;29;20213;-70
2023/12/31 15:17:32;;;;;;;0.35;0.35;;;8.40;99.90;;;;;;4899717;29;20179;-67
2023/12/31 15:19:57;;;;;;;0.30;0.30;;;8.40;99.90;;;;;;4900826;29;20198;-67
2023/12/31 15:22:24;;;;;;;0.30;0.20;;;8.40;99.90;;;;;;4899591;29;20480;-65
2023/12/31 15:24:49;;;;;;;0.30;0.30;;;8.40;99.90;;;;;;4915925;29;20643;-69
2023/12/31 15:27:15;;;;;;;0.30;0.30;;;8.40;99.90;;;;;;4918519;29;20190;-66
2023/12/31 15:29:41;;;;;;;0.32;0.32;;;8.40;99.90;;;;;;4918283;29;20230;-67
2023/12/31 15:32:07;;;;;;;0.30;0.30;;;8.40;99.90;;;;;;4909369;29;20213;-70
2023/12/31 15:34:32;;;;;;;0.30;0.30;;;8.40;99.90;;;;;;4904226;29;20414;-68
2023/12/31 15:36:58;;;;;;;0.40;0.40;;;8.40;99.90;;;;;;4917235;29;20191;-72
2023/12/31 15:39:23;;;;;;;0.33;0.33;;;8.40;99.90;;;;;;4899469;29;20727;-68
2023/12/31 15:41:50;;;;;;;0.30;0.30;;;8.40;99.90;;;;;;4899665;29;20215;-69
2023/12/31 15:44:19;;;;;;;0.40;0.40;;;8.30;99.90;;;;;;4898857;29;20166;-69
2023/12/31 15:46:45;;;;;;;0.40;0.40;;;8.40;99.90;;;;;;4915927;29;20198;-65
2023/12/31 15:49:10;;;;;;;0.30;0.30;;;8.30;99.90;;;;;;4917341;29;20213;-66
2023/12/31 15:51:36;;;;;;;0.30;0.30;;;8.30;99.90;;;;;;4902496;29;20174;-66
2023/12/31 15:54:02;;;;;;;0.30;0.30;;;8.30;99.90;;;;;;4917848;29;20182;-65
2023/12/31 15:56:28;;;;;;;0.30;0.30;;;8.30;99.90;;;;;;4917558;29;20663;-67
2023/12/31 15:58:54;;;;;;;0.30;0.30;;;8.30;99.90;;;;;;4916746;29;20192;-66
2023/12/31 16:01:20;;;;;;;0.30;0.30;;;8.20;99.90;;;;;;4916494;29;20260;-65
2023/12/31 16:03:48;;;;;;;0.30;0.30;;;8.20;99.90;;;;;;4917608;29;20417;-65
2023/12/31 16:06:14;;;;;;;0.30;0.30;;;8.20;99.90;;;;;;4915231;29;20618;-65
2023/12/31 16:08:41;;;;;;;0.30;0.30;;;8.20;99.90;;;;;;4917892;29;20209;-66
2023/12/31 16:11:07;;;;;;;0.60;0.60;;;8.20;99.90;;;;;;4903638;29;20181;-64
2023/12/31 16:13:32;;;;;;;0.30;0.30;;;8.20;99.90;;;;;;4898972;29;20699;-66
2023/12/31 16:15:58;;;;;;;0.30;0.30;;;8.20;99.90;;;;;;4912383;29;20205;-66
2023/12/31 16:18:24;;;;;;;0.30;0.30;;;8.10;99.90;;;;;;4917812;29;20234;-65
2023/12/31 16:20:49;;;;;;;0.30;0.30;;;8.10;99.90;;;;;;4905273;29;20211;-67
2023/12/31 16:23:15;;;;;;;0.40;0.40;;;8.10;99.90;;;;;;4898729;29;20182;-68
2023/12/31 16:25:40;;;;;;;0.30;0.30;;;8.10;99.90;;;;;;4898214;29;20194;-65
2023/12/31 16:28:06;;;;;;;0.30;0.30;;;8.10;99.90;;;;;;4904828;29;20181;-66
2023/12/31 16:30:32;;;;;;;0.30;0.30;;;8.00;99.90;;;;;;4912732;29;20293;-68
2023/12/31 16:32:57;;;;;;;0.30;0.30;;;8.00;99.90;;;;;;4898416;29;20175;-65
2023/12/31 16:35:23;;;;;;;0.30;0.30;;;8.00;99.90;;;;;;4898032;29;20261;-66
2023/12/31 16:37:49;;;;;;;0.30;0.30;;;8.00;99.90;;;;;;4902539;29;20282;-66
2023/12/31 16:40:14;;;;;;;0.30;0.30;;;8.00;99.90;;;;;;4913927;29;20193;-66
2023/12/31 16:42:40;;;;;;;0.30;0.20;;;8.00;99.90;;;;;;4914532;29;20186;-65
2023/12/31 16:45:09;;;;;;;0.30;0.30;;;8.00;99.90;;;;;;4915025;29;20280;-65
2023/12/31 16:47:36;;;;;;;0.30;0.20;;;8.00;99.90;;;;;;4916421;29;20185;-68
2023/12/31 16:50:08;;;;;;;0.30;0.30;;;7.90;99.90;;;;;;4916264;29;20226;-65
2023/12/31 16:52:35;;;;;;;0.30;0.30;;;7.90;99.90;;;;;;4916454;29;20188;-64
2023/12/31 16:55:00;;;;;;;0.30;0.20;;;7.90;99.90;;;;;;4915491;29;20310;-64
2023/12/31 16:57:26;;;;;;;0.30;0.27;;;7.90;99.90;;;;;;4916615;29;20261;-65
2023/12/31 16:59:51;;;;;;;0.30;0.30;;;7.90;99.90;;;;;;4917084;29;20182;-64
2023/12/31 17:02:17;;;;;;;0.30;0.30;;;7.90;99.90;;;;;;4917087;29;20182;-63
2023/12/31 17:04:43;;;;;;;0.30;0.30;;;7.80;99.90;;;;;;4915269;29;20178;-62
2023/12/31 17:07:08;;;;;;;0.30;0.30;;;7.80;99.90;;;;;;4913902;29;20209;-64
2023/12/31 17:09:34;;;;;;;0.40;0.40;;;7.80;99.90;;;;;;4915142;29;20208;-64
2023/12/31 17:12:00;;;;;;;0.30;0.30;;;7.80;99.90;;;;;;4915516;29;20204;-65
2023/12/31 17:14:27;;;;;;;0.30;0.30;;;7.80;99.90;;;;;;4915414;29;20221;-65
2023/12/31 17:16:53;;;;;;;0.30;0.30;;;7.80;99.90;;;;;;4915575;29;20189;-67
2023/12/31 17:19:18;;;;;;;0.35;0.35;;;7.80;99.90;;;;;;4915997;29;20177;-66
2023/12/31 17:21:44;;;;;;;0.40;0.40;;;7.80;99.90;;;;;;4916866;29;20183;-65
2023/12/31 17:24:10;;;;;;;0.87;0.50;;;7.80;99.90;;;;;;4916774;29;20539;-64
2023/12/31 17:26:35;;;;;;;0.30;0.30;;;7.80;99.90;;;;;;4916468;29;20204;-65
2023/12/31 17:29:01;;;;;;;0.30;0.30;;;7.80;99.90;;;;;;4916658;29;20595;-64
2023/12/31 17:31:28;;;;;;;0.30;0.30;;;7.80;99.90;;;;;;4916639;29;20170;-64
2023/12/31 17:33:54;;;;;;;0.30;0.30;;;7.80;99.90;;;;;;4916712;29;20406;-65
2023/12/31 17:36:20;;;;;;;0.30;0.30;;;7.80;99.90;;;;;;4915510;29;20650;-64
2023/12/31 17:38:46;;;;;;;0.30;0.30;;;7.80;99.90;;;;;;4897848;29;20303;-64
2023/12/31 17:41:12;;;;;;;0.40;0.40;;;7.80;99.90;;;;;;4897798;29;20180;-65
2023/12/31 17:43:37;;;;;;;0.30;0.30;;;7.90;99.90;;;;;;4897451;29;20547;-66
2023/12/31 17:46:03;;;;;;;0.30;0.30;;;7.90;99.90;;;;;;4897461;29;20201;-64
2023/12/31 17:48:29;;;;;;;0.30;0.30;;;7.80;99.90;;;;;;4897812;29;20171;-64
2023/12/31 17:50:54;;;;;;;0.30;0.30;;;7.80;99.90;;;;;;4897734;29;20178;-63
2023/12/31 17:53:20;;;;;;;0.30;0.30;;;7.80;99.90;;;;;;4897673;29;20238;-66
2023/12/31 17:55:45;;;;;;;0.40;0.40;;;7.80;99.90;;;;;;4909285;29;20281;-63
2023/12/31 17:58:11;;;;;;;0.30;0.30;;;7.80;99.90;;;;;;4916440;29;20210;-65